sensor_id;sensor_type;location;lat;lon;timestamp;P1;durP1;ratioP1;P2;durP2;ratioP2
22068;SDS011;13887;57.196;-2.100;2023-01-26T00:01:19;13.10;;;12.70;;
22068;SDS011;13887;57.196;-2.100;2023-01-26T00:03:48;12.40;;;12.00;;
22068;SDS011;13887;57.196;-2.100;2023-01-26T00:06:16;12.73;;;12.33;;
22068;SDS011;13887;57.196;-2.100;2023-01-26T00:08:45;12.80;;;12.40;;
22068;SDS011;13887;57.196;-2.100;2023-01-26T00:11:15;13.10;;;12.70;;
22068;SDS011;13887;57.196;-2.100;2023-01-26T00:13:44;13.07;;;12.67;;
22068;SDS011;13887;57.196;-2.100;2023-01-26T00:16:12;12.90;;;12.50;;
22068;SDS011;13887;57.196;-2.100;2023-01-26T00:18:40;13.40;;;12.90;;
22068;SDS011;13887;57.196;-2.100;2023-01-26T00:21:10;12.70;;;12.30;;
22068;SDS011;13887;57.196;-2.100;2023-01-26T00:23:40;13.10;;;12.70;;
22068;SDS011;13887;57.196;-2.100;2023-01-26T00:26:08;12.90;;;12.50;;
22068;SDS011;13887;57.196;-2.100;2023-01-26T00:28:37;12.80;;;12.40;;
22068;SDS011;13887;57.196;-2.100;2023-01-26T00:31:05;13.00;;;12.60;;
22068;SDS011;13887;57.196;-2.100;2023-01-26T00:33:35;13.00;;;12.60;;
22068;SDS011;13887;57.196;-2.100;2023-01-26T00:36:02;13.00;;;12.60;;
22068;SDS011;13887;57.196;-2.100;2023-01-26T00:38:29;13.23;;;12.83;;
22068;SDS011;13887;57.196;-2.100;2023-01-26T00:40:56;13.13;;;12.73;;
22068;SDS011;13887;57.196;-2.100;2023-01-26T00:43:23;13.27;;;12.87;;
22068;SDS011;13887;57.196;-2.100;2023-01-26T00:45:50;12.63;;;12.23;;
22068;SDS011;13887;57.196;-2.100;2023-01-26T00:48:18;12.90;;;12.50;;
22068;SDS011;13887;57.196;-2.100;2023-01-26T00:50:45;12.90;;;12.50;;
22068;SDS011;13887;57.196;-2.100;2023-01-26T00:53:12;14.33;;;13.73;;
22068;SDS011;13887;57.196;-2.100;2023-01-26T00:55:39;13.10;;;12.70;;
22068;SDS011;13887;57.196;-2.100;2023-01-26T00:58:06;12.97;;;12.57;;
22068;SDS011;13887;57.196;-2.100;2023-01-26T01:00:34;12.70;;;12.30;;
22068;SDS011;13887;57.196;-2.100;2023-01-26T01:03:03;12.73;;;12.33;;
22068;SDS011;13887;57.196;-2.100;2023-01-26T01:05:32;13.00;;;12.60;;
22068;SDS011;13887;57.196;-2.100;2023-01-26T01:08:00;13.33;;;12.90;;
22068;SDS011;13887;57.196;-2.100;2023-01-26T01:10:27;13.00;;;12.60;;
22068;SDS011;13887;57.196;-2.100;2023-01-26T01:12:54;12.70;;;12.30;;
22068;SDS011;13887;57.196;-2.100;2023-01-26T01:15:22;13.23;;;12.83;;
22068;SDS011;13887;57.196;-2.100;2023-01-26T01:17:50;13.00;;;12.60;;
22068;SDS011;13887;57.196;-2.100;2023-01-26T01:20:17;12.77;;;12.37;;
22068;SDS011;13887;57.196;-2.100;2023-01-26T01:22:45;12.73;;;12.33;;
22068;SDS011;13887;57.196;-2.100;2023-01-26T01:25:12;13.23;;;12.83;;
22068;SDS011;13887;57.196;-2.100;2023-01-26T01:27:39;13.07;;;12.67;;
22068;SDS011;13887;57.196;-2.100;2023-01-26T01:30:07;12.97;;;12.57;;
22068;SDS011;13887;57.196;-2.100;2023-01-26T01:32:35;12.77;;;12.37;;
22068;SDS011;13887;57.196;-2.100;2023-01-26T01:35:02;12.63;;;12.23;;
22068;SDS011;13887;57.196;-2.100;2023-01-26T01:37:29;12.60;;;12.20;;
22068;SDS011;13887;57.196;-2.100;2023-01-26T01:39:56;12.73;;;12.33;;
22068;SDS011;13887;57.196;-2.100;2023-01-26T01:42:24;12.63;;;12.23;;
22068;SDS011;13887;57.196;-2.100;2023-01-26T01:47:50;12.67;;;12.27;;
22068;SDS011;13887;57.196;-2.100;2023-01-26T01:50:26;12.67;;;12.27;;
22068;SDS011;13887;57.196;-2.100;2023-01-26T01:52:53;13.13;;;12.73;;
22068;SDS011;13887;57.196;-2.100;2023-01-26T01:55:21;12.90;;;12.50;;
22068;SDS011;13887;57.196;-2.100;2023-01-26T01:57:52;12.60;;;12.20;;
22068;SDS011;13887;57.196;-2.100;2023-01-26T02:00:25;12.33;;;11.93;;
22068;SDS011;13887;57.196;-2.100;2023-01-26T02:02:55;12.27;;;11.87;;
22068;SDS011;13887;57.196;-2.100;2023-01-26T02:05:39;12.37;;;11.97;;
22068;SDS011;13887;57.196;-2.100;2023-01-26T02:08:31;13.03;;;12.63;;
22068;SDS011;13887;57.196;-2.100;2023-01-26T02:11:05;12.53;;;12.13;;
22068;SDS011;13887;57.196;-2.100;2023-01-26T02:13:35;12.07;;;11.67;;
22068;SDS011;13887;57.196;-2.100;2023-01-26T02:16:03;12.60;;;12.20;;
22068;SDS011;13887;57.196;-2.100;2023-01-26T02:18:30;12.30;;;11.90;;
22068;SDS011;13887;57.196;-2.100;2023-01-26T02:21:01;12.53;;;12.13;;
22068;SDS011;13887;57.196;-2.100;2023-01-26T02:26:25;12.37;;;11.97;;
22068;SDS011;13887;57.196;-2.100;2023-01-26T02:28:54;12.37;;;11.97;;
22068;SDS011;13887;57.196;-2.100;2023-01-26T02:31:22;12.30;;;11.90;;
22068;SDS011;13887;57.196;-2.100;2023-01-26T02:33:52;12.10;;;11.70;;
22068;SDS011;13887;57.196;-2.100;2023-01-26T02:36:23;11.97;;;11.57;;
22068;SDS011;13887;57.196;-2.100;2023-01-26T02:42:05;12.60;;;12.20;;
22068;SDS011;13887;57.196;-2.100;2023-01-26T02:44:51;12.40;;;12.00;;
22068;SDS011;13887;57.196;-2.100;2023-01-26T02:47:18;11.73;;;11.33;;
22068;SDS011;13887;57.196;-2.100;2023-01-26T02:49:46;12.17;;;11.77;;
22068;SDS011;13887;57.196;-2.100;2023-01-26T02:52:15;11.97;;;11.57;;
22068;SDS011;13887;57.196;-2.100;2023-01-26T02:54:48;11.77;;;11.37;;
22068;SDS011;13887;57.196;-2.100;2023-01-26T02:57:33;12.37;;;11.97;;
22068;SDS011;13887;57.196;-2.100;2023-01-26T03:00:02;11.97;;;11.57;;
22068;SDS011;13887;57.196;-2.100;2023-01-26T03:02:34;12.20;;;11.80;;
22068;SDS011;13887;57.196;-2.100;2023-01-26T03:05:02;12.30;;;11.90;;
22068;SDS011;13887;57.196;-2.100;2023-01-26T03:07:30;12.03;;;11.63;;
22068;SDS011;13887;57.196;-2.100;2023-01-26T03:09:57;12.30;;;11.90;;
22068;SDS011;13887;57.196;-2.100;2023-01-26T03:12:27;12.30;;;11.90;;
22068;SDS011;13887;57.196;-2.100;2023-01-26T03:14:54;11.90;;;11.50;;
22068;SDS011;13887;57.196;-2.100;2023-01-26T03:17:42;12.53;;;12.13;;
22068;SDS011;13887;57.196;-2.100;2023-01-26T03:20:09;12.40;;;12.00;;
22068;SDS011;13887;57.196;-2.100;2023-01-26T03:22:56;12.50;;;12.10;;
22068;SDS011;13887;57.196;-2.100;2023-01-26T03:25:42;12.40;;;12.00;;
22068;SDS011;13887;57.196;-2.100;2023-01-26T03:28:31;12.37;;;11.97;;
22068;SDS011;13887;57.196;-2.100;2023-01-26T03:30:58;12.50;;;12.10;;
22068;SDS011;13887;57.196;-2.100;2023-01-26T03:33:27;12.20;;;11.80;;
22068;SDS011;13887;57.196;-2.100;2023-01-26T03:35:54;12.33;;;11.93;;
22068;SDS011;13887;57.196;-2.100;2023-01-26T03:38:22;12.60;;;12.20;;
22068;SDS011;13887;57.196;-2.100;2023-01-26T03:40:55;12.43;;;12.03;;
22068;SDS011;13887;57.196;-2.100;2023-01-26T03:43:42;12.13;;;11.73;;
22068;SDS011;13887;57.196;-2.100;2023-01-26T03:46:27;12.13;;;11.73;;
22068;SDS011;13887;57.196;-2.100;2023-01-26T03:49:13;12.27;;;11.87;;
22068;SDS011;13887;57.196;-2.100;2023-01-26T03:51:59;12.10;;;11.70;;
22068;SDS011;13887;57.196;-2.100;2023-01-26T03:54:46;12.10;;;11.70;;
22068;SDS011;13887;57.196;-2.100;2023-01-26T03:57:31;12.33;;;11.93;;
22068;SDS011;13887;57.196;-2.100;2023-01-26T03:59:58;12.40;;;12.00;;
22068;SDS011;13887;57.196;-2.100;2023-01-26T04:02:26;12.13;;;11.73;;
22068;SDS011;13887;57.196;-2.100;2023-01-26T04:05:11;12.10;;;11.70;;
22068;SDS011;13887;57.196;-2.100;2023-01-26T04:08:03;12.17;;;11.77;;
22068;SDS011;13887;57.196;-2.100;2023-01-26T04:10:55;11.90;;;11.50;;
22068;SDS011;13887;57.196;-2.100;2023-01-26T04:13:23;11.97;;;11.57;;
22068;SDS011;13887;57.196;-2.100;2023-01-26T04:16:27;11.90;;;11.50;;
22068;SDS011;13887;57.196;-2.100;2023-01-26T04:19:13;12.50;;;12.10;;
22068;SDS011;13887;57.196;-2.100;2023-01-26T04:21:59;12.70;;;12.30;;
22068;SDS011;13887;57.196;-2.100;2023-01-26T04:24:28;12.60;;;12.20;;
22068;SDS011;13887;57.196;-2.100;2023-01-26T04:26:56;12.60;;;12.20;;
22068;SDS011;13887;57.196;-2.100;2023-01-26T04:29:32;12.43;;;12.03;;
22068;SDS011;13887;57.196;-2.100;2023-01-26T04:31:59;12.30;;;11.90;;
22068;SDS011;13887;57.196;-2.100;2023-01-26T04:34:27;12.43;;;12.03;;
22068;SDS011;13887;57.196;-2.100;2023-01-26T04:36:54;12.43;;;12.03;;
22068;SDS011;13887;57.196;-2.100;2023-01-26T04:39:23;12.27;;;11.87;;
22068;SDS011;13887;57.196;-2.100;2023-01-26T04:41:54;12.50;;;12.10;;
22068;SDS011;13887;57.196;-2.100;2023-01-26T04:44:21;12.50;;;12.10;;
22068;SDS011;13887;57.196;-2.100;2023-01-26T04:46:48;12.50;;;12.10;;
22068;SDS011;13887;57.196;-2.100;2023-01-26T04:49:16;12.90;;;12.50;;
22068;SDS011;13887;57.196;-2.100;2023-01-26T04:51:43;12.87;;;12.47;;
22068;SDS011;13887;57.196;-2.100;2023-01-26T04:54:10;12.67;;;12.27;;
22068;SDS011;13887;57.196;-2.100;2023-01-26T04:56:40;13.00;;;12.60;;
22068;SDS011;13887;57.196;-2.100;2023-01-26T04:59:08;12.87;;;12.47;;
22068;SDS011;13887;57.196;-2.100;2023-01-26T05:01:38;12.80;;;12.40;;
22068;SDS011;13887;57.196;-2.100;2023-01-26T05:04:06;13.00;;;12.60;;
22068;SDS011;13887;57.196;-2.100;2023-01-26T05:06:41;12.83;;;12.43;;
22068;SDS011;13887;57.196;-2.100;2023-01-26T05:09:09;12.87;;;12.47;;
22068;SDS011;13887;57.196;-2.100;2023-01-26T05:11:38;12.53;;;12.13;;
22068;SDS011;13887;57.196;-2.100;2023-01-26T05:14:05;13.00;;;12.60;;
22068;SDS011;13887;57.196;-2.100;2023-01-26T05:16:55;12.53;;;12.13;;
22068;SDS011;13887;57.196;-2.100;2023-01-26T05:19:42;12.50;;;12.10;;
22068;SDS011;13887;57.196;-2.100;2023-01-26T05:22:27;12.87;;;12.47;;
22068;SDS011;13887;57.196;-2.100;2023-01-26T05:25:33;13.23;;;12.80;;
22068;SDS011;13887;57.196;-2.100;2023-01-26T05:28:03;13.60;;;13.10;;
22068;SDS011;13887;57.196;-2.100;2023-01-26T05:30:30;13.50;;;13.00;;
22068;SDS011;13887;57.196;-2.100;2023-01-26T05:33:00;12.97;;;12.57;;
22068;SDS011;13887;57.196;-2.100;2023-01-26T05:35:28;12.57;;;12.17;;
22068;SDS011;13887;57.196;-2.100;2023-01-26T05:37:55;13.10;;;12.70;;
22068;SDS011;13887;57.196;-2.100;2023-01-26T05:40:24;12.70;;;12.30;;
22068;SDS011;13887;57.196;-2.100;2023-01-26T05:42:52;13.20;;;12.80;;
22068;SDS011;13887;57.196;-2.100;2023-01-26T05:45:38;13.13;;;12.73;;
22068;SDS011;13887;57.196;-2.100;2023-01-26T05:48:07;13.77;;;13.27;;
22068;SDS011;13887;57.196;-2.100;2023-01-26T05:50:34;13.60;;;13.10;;
22068;SDS011;13887;57.196;-2.100;2023-01-26T05:53:27;13.00;;;12.60;;
22068;SDS011;13887;57.196;-2.100;2023-01-26T05:55:54;13.03;;;12.63;;
22068;SDS011;13887;57.196;-2.100;2023-01-26T05:58:23;13.43;;;12.93;;
22068;SDS011;13887;57.196;-2.100;2023-01-26T06:00:50;12.90;;;12.50;;
22068;SDS011;13887;57.196;-2.100;2023-01-26T06:03:23;13.47;;;12.97;;
22068;SDS011;13887;57.196;-2.100;2023-01-26T06:05:53;13.90;;;13.40;;
22068;SDS011;13887;57.196;-2.100;2023-01-26T06:08:30;14.00;;;13.50;;
22068;SDS011;13887;57.196;-2.100;2023-01-26T06:11:17;14.13;;;13.63;;
22068;SDS011;13887;57.196;-2.100;2023-01-26T06:14:04;14.00;;;13.50;;
22068;SDS011;13887;57.196;-2.100;2023-01-26T06:16:32;14.03;;;13.53;;
22068;SDS011;13887;57.196;-2.100;2023-01-26T06:18:59;13.63;;;13.13;;
22068;SDS011;13887;57.196;-2.100;2023-01-26T06:21:26;13.90;;;13.40;;
22068;SDS011;13887;57.196;-2.100;2023-01-26T06:23:54;13.73;;;13.23;;
22068;SDS011;13887;57.196;-2.100;2023-01-26T06:26:22;13.73;;;13.23;;
22068;SDS011;13887;57.196;-2.100;2023-01-26T06:28:50;13.57;;;13.07;;
22068;SDS011;13887;57.196;-2.100;2023-01-26T06:31:19;13.67;;;13.17;;
22068;SDS011;13887;57.196;-2.100;2023-01-26T06:33:47;13.60;;;13.10;;
22068;SDS011;13887;57.196;-2.100;2023-01-26T06:36:15;13.57;;;13.07;;
22068;SDS011;13887;57.196;-2.100;2023-01-26T06:38:46;13.60;;;13.10;;
22068;SDS011;13887;57.196;-2.100;2023-01-26T06:41:15;13.70;;;13.20;;
22068;SDS011;13887;57.196;-2.100;2023-01-26T06:43:43;13.90;;;13.40;;
22068;SDS011;13887;57.196;-2.100;2023-01-26T06:46:12;13.70;;;13.20;;
22068;SDS011;13887;57.196;-2.100;2023-01-26T06:48:40;13.43;;;12.93;;
22068;SDS011;13887;57.196;-2.100;2023-01-26T06:53:48;13.13;;;12.73;;
22068;SDS011;13887;57.196;-2.100;2023-01-26T06:56:50;13.90;;;13.40;;
22068;SDS011;13887;57.196;-2.100;2023-01-26T06:59:35;13.73;;;13.23;;
22068;SDS011;13887;57.196;-2.100;2023-01-26T07:02:23;14.00;;;13.50;;
22068;SDS011;13887;57.196;-2.100;2023-01-26T07:04:50;14.13;;;13.63;;
22068;SDS011;13887;57.196;-2.100;2023-01-26T07:07:18;13.60;;;13.10;;
22068;SDS011;13887;57.196;-2.100;2023-01-26T07:09:45;13.60;;;13.10;;
22068;SDS011;13887;57.196;-2.100;2023-01-26T07:12:11;13.90;;;13.40;;
22068;SDS011;13887;57.196;-2.100;2023-01-26T07:14:39;14.13;;;13.63;;
22068;SDS011;13887;57.196;-2.100;2023-01-26T07:17:06;14.17;;;13.67;;
22068;SDS011;13887;57.196;-2.100;2023-01-26T07:19:32;14.20;;;13.70;;
22068;SDS011;13887;57.196;-2.100;2023-01-26T07:22:00;14.30;;;13.80;;
22068;SDS011;13887;57.196;-2.100;2023-01-26T07:24:27;14.33;;;13.83;;
22068;SDS011;13887;57.196;-2.100;2023-01-26T07:26:54;13.80;;;13.30;;
22068;SDS011;13887;57.196;-2.100;2023-01-26T07:29:22;14.00;;;13.50;;
22068;SDS011;13887;57.196;-2.100;2023-01-26T07:31:49;14.00;;;13.50;;
22068;SDS011;13887;57.196;-2.100;2023-01-26T07:34:16;13.60;;;13.10;;
22068;SDS011;13887;57.196;-2.100;2023-01-26T07:36:43;14.23;;;13.73;;
22068;SDS011;13887;57.196;-2.100;2023-01-26T07:39:10;13.90;;;13.40;;
22068;SDS011;13887;57.196;-2.100;2023-01-26T07:41:37;14.20;;;13.70;;
22068;SDS011;13887;57.196;-2.100;2023-01-26T07:44:25;14.17;;;13.67;;
22068;SDS011;13887;57.196;-2.100;2023-01-26T07:46:51;13.90;;;13.40;;
22068;SDS011;13887;57.196;-2.100;2023-01-26T07:49:19;14.00;;;13.50;;
22068;SDS011;13887;57.196;-2.100;2023-01-26T07:51:46;13.80;;;13.30;;
22068;SDS011;13887;57.196;-2.100;2023-01-26T07:54:13;14.30;;;13.80;;
22068;SDS011;13887;57.196;-2.100;2023-01-26T07:56:40;13.80;;;13.30;;
22068;SDS011;13887;57.196;-2.100;2023-01-26T07:59:09;13.80;;;13.30;;
22068;SDS011;13887;57.196;-2.100;2023-01-26T08:01:37;14.00;;;13.50;;
22068;SDS011;13887;57.196;-2.100;2023-01-26T08:04:04;12.50;;;12.10;;
22068;SDS011;13887;57.196;-2.100;2023-01-26T08:06:32;13.50;;;13.00;;
22068;SDS011;13887;57.196;-2.100;2023-01-26T08:08:59;13.53;;;13.03;;
22068;SDS011;13887;57.196;-2.100;2023-01-26T08:11:26;13.77;;;13.27;;
22068;SDS011;13887;57.196;-2.100;2023-01-26T08:13:53;13.33;;;12.93;;
22068;SDS011;13887;57.196;-2.100;2023-01-26T08:16:21;13.80;;;13.30;;
22068;SDS011;13887;57.196;-2.100;2023-01-26T08:18:48;13.47;;;13.07;;
22068;SDS011;13887;57.196;-2.100;2023-01-26T08:21:16;13.20;;;12.80;;
22068;SDS011;13887;57.196;-2.100;2023-01-26T08:23:50;13.03;;;12.63;;
22068;SDS011;13887;57.196;-2.100;2023-01-26T08:26:18;12.70;;;12.30;;
22068;SDS011;13887;57.196;-2.100;2023-01-26T08:28:45;13.03;;;12.63;;
22068;SDS011;13887;57.196;-2.100;2023-01-26T08:31:17;12.67;;;12.27;;
22068;SDS011;13887;57.196;-2.100;2023-01-26T08:33:47;12.97;;;12.57;;
22068;SDS011;13887;57.196;-2.100;2023-01-26T08:36:16;13.13;;;12.73;;
22068;SDS011;13887;57.196;-2.100;2023-01-26T08:38:47;13.40;;;12.93;;
22068;SDS011;13887;57.196;-2.100;2023-01-26T08:41:14;13.70;;;13.20;;
22068;SDS011;13887;57.196;-2.100;2023-01-26T08:43:41;13.10;;;12.70;;
22068;SDS011;13887;57.196;-2.100;2023-01-26T08:46:08;13.10;;;12.70;;
22068;SDS011;13887;57.196;-2.100;2023-01-26T08:48:35;12.80;;;12.40;;
22068;SDS011;13887;57.196;-2.100;2023-01-26T08:51:03;12.83;;;12.43;;
22068;SDS011;13887;57.196;-2.100;2023-01-26T08:53:32;13.70;;;13.20;;
22068;SDS011;13887;57.196;-2.100;2023-01-26T08:56:00;13.47;;;12.97;;
22068;SDS011;13887;57.196;-2.100;2023-01-26T08:58:31;13.80;;;13.30;;
22068;SDS011;13887;57.196;-2.100;2023-01-26T09:01:02;16.30;;;15.50;;
22068;SDS011;13887;57.196;-2.100;2023-01-26T09:03:32;13.93;;;13.43;;
22068;SDS011;13887;57.196;-2.100;2023-01-26T09:06:00;13.30;;;12.90;;
22068;SDS011;13887;57.196;-2.100;2023-01-26T09:08:30;13.90;;;13.40;;
22068;SDS011;13887;57.196;-2.100;2023-01-26T09:10:57;13.50;;;13.00;;
22068;SDS011;13887;57.196;-2.100;2023-01-26T09:13:24;12.90;;;12.50;;
22068;SDS011;13887;57.196;-2.100;2023-01-26T09:15:51;12.90;;;12.50;;
22068;SDS011;13887;57.196;-2.100;2023-01-26T09:18:18;12.63;;;12.23;;
22068;SDS011;13887;57.196;-2.100;2023-01-26T09:20:45;13.70;;;13.20;;
22068;SDS011;13887;57.196;-2.100;2023-01-26T09:23:12;13.60;;;13.10;;
22068;SDS011;13887;57.196;-2.100;2023-01-26T09:25:41;13.43;;;12.97;;
22068;SDS011;13887;57.196;-2.100;2023-01-26T09:28:08;13.37;;;12.93;;
22068;SDS011;13887;57.196;-2.100;2023-01-26T09:30:36;13.00;;;12.60;;
22068;SDS011;13887;57.196;-2.100;2023-01-26T09:33:03;13.00;;;12.60;;
22068;SDS011;13887;57.196;-2.100;2023-01-26T09:35:31;13.50;;;13.00;;
22068;SDS011;13887;57.196;-2.100;2023-01-26T09:37:58;13.37;;;12.97;;
22068;SDS011;13887;57.196;-2.100;2023-01-26T09:40:36;12.50;;;12.10;;
22068;SDS011;13887;57.196;-2.100;2023-01-26T09:51:43;13.20;;;12.80;;
22068;SDS011;13887;57.196;-2.100;2023-01-26T09:54:30;13.90;;;13.40;;
22068;SDS011;13887;57.196;-2.100;2023-01-26T09:56:59;13.70;;;13.20;;
22068;SDS011;13887;57.196;-2.100;2023-01-26T10:05:19;12.63;;;12.23;;
22068;SDS011;13887;57.196;-2.100;2023-01-26T10:08:11;12.67;;;12.27;;
22068;SDS011;13887;57.196;-2.100;2023-01-26T10:10:44;12.20;;;11.80;;
22068;SDS011;13887;57.196;-2.100;2023-01-26T10:13:32;12.73;;;12.33;;
22068;SDS011;13887;57.196;-2.100;2023-01-26T10:16:00;12.97;;;12.57;;
22068;SDS011;13887;57.196;-2.100;2023-01-26T10:18:33;12.70;;;12.30;;
22068;SDS011;13887;57.196;-2.100;2023-01-26T10:21:15;12.90;;;12.50;;
22068;SDS011;13887;57.196;-2.100;2023-01-26T10:23:46;13.00;;;12.60;;
22068;SDS011;13887;57.196;-2.100;2023-01-26T10:28:43;13.60;;;13.10;;
22068;SDS011;13887;57.196;-2.100;2023-01-26T10:31:13;12.83;;;12.43;;
22068;SDS011;13887;57.196;-2.100;2023-01-26T10:33:47;13.27;;;12.87;;
22068;SDS011;13887;57.196;-2.100;2023-01-26T10:36:20;13.20;;;12.80;;
22068;SDS011;13887;57.196;-2.100;2023-01-26T10:38:48;13.37;;;12.97;;
22068;SDS011;13887;57.196;-2.100;2023-01-26T10:49:02;13.20;;;12.80;;
22068;SDS011;13887;57.196;-2.100;2023-01-26T10:51:42;13.07;;;12.67;;
22068;SDS011;13887;57.196;-2.100;2023-01-26T10:54:30;13.67;;;13.17;;
22068;SDS011;13887;57.196;-2.100;2023-01-26T10:57:21;12.53;;;12.13;;
22068;SDS011;13887;57.196;-2.100;2023-01-26T10:59:57;12.93;;;12.53;;
22068;SDS011;13887;57.196;-2.100;2023-01-26T11:02:27;13.10;;;12.70;;
22068;SDS011;13887;57.196;-2.100;2023-01-26T11:12:45;12.50;;;12.10;;
22068;SDS011;13887;57.196;-2.100;2023-01-26T11:23:28;12.80;;;12.40;;
22068;SDS011;13887;57.196;-2.100;2023-01-26T11:26:07;12.83;;;12.43;;
22068;SDS011;13887;57.196;-2.100;2023-01-26T11:31:45;13.03;;;12.63;;
22068;SDS011;13887;57.196;-2.100;2023-01-26T11:40:19;13.03;;;12.63;;
22068;SDS011;13887;57.196;-2.100;2023-01-26T11:42:59;12.90;;;12.50;;
22068;SDS011;13887;57.196;-2.100;2023-01-26T11:45:42;13.03;;;12.63;;
22068;SDS011;13887;57.196;-2.100;2023-01-26T11:48:20;12.90;;;12.50;;
22068;SDS011;13887;57.196;-2.100;2023-01-26T11:51:00;13.03;;;12.63;;
22068;SDS011;13887;57.196;-2.100;2023-01-26T11:56:48;12.90;;;12.50;;
22068;SDS011;13887;57.196;-2.100;2023-01-26T11:59:31;12.90;;;12.50;;
22068;SDS011;13887;57.196;-2.100;2023-01-26T12:04:57;12.83;;;12.43;;
22068;SDS011;13887;57.196;-2.100;2023-01-26T12:07:29;12.90;;;12.50;;
22068;SDS011;13887;57.196;-2.100;2023-01-26T12:10:17;13.13;;;12.73;;
22068;SDS011;13887;57.196;-2.100;2023-01-26T12:13:00;12.80;;;12.40;;
22068;SDS011;13887;57.196;-2.100;2023-01-26T12:15:37;12.80;;;12.40;;
22068;SDS011;13887;57.196;-2.100;2023-01-26T12:20:50;12.17;;;11.77;;
22068;SDS011;13887;57.196;-2.100;2023-01-26T12:25:54;12.43;;;12.03;;
22068;SDS011;13887;57.196;-2.100;2023-01-26T12:33:54;12.63;;;12.23;;
22068;SDS011;13887;57.196;-2.100;2023-01-26T12:45:01;12.60;;;12.20;;
22068;SDS011;13887;57.196;-2.100;2023-01-26T12:50:49;12.47;;;12.07;;
22068;SDS011;13887;57.196;-2.100;2023-01-26T12:53:33;12.00;;;11.60;;
22068;SDS011;13887;57.196;-2.100;2023-01-26T12:58:39;12.17;;;11.77;;
22068;SDS011;13887;57.196;-2.100;2023-01-26T13:01:11;12.33;;;11.93;;
22068;SDS011;13887;57.196;-2.100;2023-01-26T13:03:44;12.00;;;11.60;;
22068;SDS011;13887;57.196;-2.100;2023-01-26T13:07:02;12.33;;;11.93;;
22068;SDS011;13887;57.196;-2.100;2023-01-26T13:09:30;11.93;;;11.53;;
22068;SDS011;13887;57.196;-2.100;2023-01-26T13:11:57;11.93;;;11.53;;
22068;SDS011;13887;57.196;-2.100;2023-01-26T13:19:53;12.53;;;12.13;;
22068;SDS011;13887;57.196;-2.100;2023-01-26T13:29:59;12.47;;;12.07;;
22068;SDS011;13887;57.196;-2.100;2023-01-26T13:35:18;11.87;;;11.47;;
22068;SDS011;13887;57.196;-2.100;2023-01-26T13:37:49;12.57;;;12.17;;
22068;SDS011;13887;57.196;-2.100;2023-01-26T13:40:22;12.70;;;12.30;;
22068;SDS011;13887;57.196;-2.100;2023-01-26T13:43:17;12.50;;;12.10;;
22068;SDS011;13887;57.196;-2.100;2023-01-26T13:49:02;12.10;;;11.70;;
22068;SDS011;13887;57.196;-2.100;2023-01-26T13:51:29;12.40;;;12.00;;
22068;SDS011;13887;57.196;-2.100;2023-01-26T13:56:39;11.33;;;10.97;;
22068;SDS011;13887;57.196;-2.100;2023-01-26T13:59:12;11.80;;;11.40;;
22068;SDS011;13887;57.196;-2.100;2023-01-26T14:01:42;11.67;;;11.27;;
22068;SDS011;13887;57.196;-2.100;2023-01-26T14:04:20;11.70;;;11.30;;
22068;SDS011;13887;57.196;-2.100;2023-01-26T14:07:01;11.70;;;11.30;;
22068;SDS011;13887;57.196;-2.100;2023-01-26T14:09:33;11.70;;;11.30;;
22068;SDS011;13887;57.196;-2.100;2023-01-26T14:12:12;11.73;;;11.33;;
22068;SDS011;13887;57.196;-2.100;2023-01-26T14:14:47;11.70;;;11.30;;
22068;SDS011;13887;57.196;-2.100;2023-01-26T14:20:25;11.80;;;11.40;;
22068;SDS011;13887;57.196;-2.100;2023-01-26T14:25:36;12.13;;;11.73;;
22068;SDS011;13887;57.196;-2.100;2023-01-26T14:28:04;12.27;;;11.87;;
22068;SDS011;13887;57.196;-2.100;2023-01-26T14:30:32;11.47;;;11.07;;
22068;SDS011;13887;57.196;-2.100;2023-01-26T14:33:13;12.17;;;11.77;;
22068;SDS011;13887;57.196;-2.100;2023-01-26T14:35:42;11.87;;;11.47;;
22068;SDS011;13887;57.196;-2.100;2023-01-26T14:38:20;11.70;;;11.30;;
22068;SDS011;13887;57.196;-2.100;2023-01-26T14:40:48;11.93;;;11.53;;
22068;SDS011;13887;57.196;-2.100;2023-01-26T14:43:19;11.87;;;11.47;;
22068;SDS011;13887;57.196;-2.100;2023-01-26T14:45:48;11.87;;;11.47;;
22068;SDS011;13887;57.196;-2.100;2023-01-26T14:48:21;11.87;;;11.47;;
22068;SDS011;13887;57.196;-2.100;2023-01-26T14:50:53;12.07;;;11.67;;
22068;SDS011;13887;57.196;-2.100;2023-01-26T14:53:21;12.30;;;11.90;;
22068;SDS011;13887;57.196;-2.100;2023-01-26T14:55:49;12.40;;;12.00;;
22068;SDS011;13887;57.196;-2.100;2023-01-26T14:58:22;11.90;;;11.50;;
22068;SDS011;13887;57.196;-2.100;2023-01-26T15:00:53;12.00;;;11.60;;
22068;SDS011;13887;57.196;-2.100;2023-01-26T15:08:40;11.30;;;10.93;;
22068;SDS011;13887;57.196;-2.100;2023-01-26T15:11:22;11.63;;;11.23;;
22068;SDS011;13887;57.196;-2.100;2023-01-26T15:17:26;11.67;;;11.27;;
22068;SDS011;13887;57.196;-2.100;2023-01-26T15:20:34;11.97;;;11.57;;
22068;SDS011;13887;57.196;-2.100;2023-01-26T15:22:56;11.87;;;11.47;;
22068;SDS011;13887;57.196;-2.100;2023-01-26T15:25:24;11.63;;;11.23;;
22068;SDS011;13887;57.196;-2.100;2023-01-26T15:27:57;11.63;;;11.23;;
22068;SDS011;13887;57.196;-2.100;2023-01-26T15:30:26;11.20;;;10.90;;
22068;SDS011;13887;57.196;-2.100;2023-01-26T15:32:56;11.37;;;10.97;;
22068;SDS011;13887;57.196;-2.100;2023-01-26T15:35:24;11.27;;;10.93;;
22068;SDS011;13887;57.196;-2.100;2023-01-26T15:38:09;11.10;;;10.80;;
22068;SDS011;13887;57.196;-2.100;2023-01-26T15:40:37;11.80;;;11.40;;
22068;SDS011;13887;57.196;-2.100;2023-01-26T15:43:14;11.90;;;11.50;;
22068;SDS011;13887;57.196;-2.100;2023-01-26T15:45:53;11.80;;;11.40;;
22068;SDS011;13887;57.196;-2.100;2023-01-26T15:48:22;11.03;;;10.73;;
22068;SDS011;13887;57.196;-2.100;2023-01-26T15:50:50;11.43;;;11.03;;
22068;SDS011;13887;57.196;-2.100;2023-01-26T15:53:18;11.50;;;11.10;;
22068;SDS011;13887;57.196;-2.100;2023-01-26T15:55:46;11.93;;;11.53;;
22068;SDS011;13887;57.196;-2.100;2023-01-26T15:58:22;11.27;;;10.90;;
22068;SDS011;13887;57.196;-2.100;2023-01-26T16:00:50;11.03;;;10.73;;
22068;SDS011;13887;57.196;-2.100;2023-01-26T16:03:19;11.57;;;11.17;;
22068;SDS011;13887;57.196;-2.100;2023-01-26T16:05:47;11.13;;;10.83;;
22068;SDS011;13887;57.196;-2.100;2023-01-26T16:08:15;10.93;;;10.63;;
22068;SDS011;13887;57.196;-2.100;2023-01-26T16:10:43;11.43;;;11.03;;
22068;SDS011;13887;57.196;-2.100;2023-01-26T16:13:11;11.53;;;11.13;;
22068;SDS011;13887;57.196;-2.100;2023-01-26T16:18:11;11.90;;;11.50;;
22068;SDS011;13887;57.196;-2.100;2023-01-26T16:20:39;11.50;;;11.10;;
22068;SDS011;13887;57.196;-2.100;2023-01-26T16:23:15;11.17;;;10.87;;
22068;SDS011;13887;57.196;-2.100;2023-01-26T16:25:47;11.53;;;11.13;;
22068;SDS011;13887;57.196;-2.100;2023-01-26T16:28:15;11.70;;;11.30;;
22068;SDS011;13887;57.196;-2.100;2023-01-26T16:30:43;11.53;;;11.13;;
22068;SDS011;13887;57.196;-2.100;2023-01-26T16:33:12;11.53;;;11.13;;
22068;SDS011;13887;57.196;-2.100;2023-01-26T16:35:46;11.53;;;11.13;;
22068;SDS011;13887;57.196;-2.100;2023-01-26T16:38:13;11.40;;;11.03;;
22068;SDS011;13887;57.196;-2.100;2023-01-26T16:40:42;10.93;;;10.63;;
22068;SDS011;13887;57.196;-2.100;2023-01-26T16:43:20;11.50;;;11.10;;
22068;SDS011;13887;57.196;-2.100;2023-01-26T16:45:53;11.17;;;10.87;;
22068;SDS011;13887;57.196;-2.100;2023-01-26T16:48:20;10.97;;;10.67;;